sensor_id;sensor_type;location;lat;lon;timestamp;P1;durP1;ratioP1;P2;durP2;ratioP2
81330;SDS011;70793;53.076;8.822;2023-06-26T00:00:42;2.67;;;2.00;;
81330;SDS011;70793;53.076;8.822;2023-06-26T00:03:07;2.20;;;1.80;;
81330;SDS011;70793;53.076;8.822;2023-06-26T00:05:33;2.30;;;1.63;;
81330;SDS011;70793;53.076;8.822;2023-06-26T00:07:59;2.13;;;1.88;;
81330;SDS011;70793;53.076;8.822;2023-06-26T00:10:26;2.60;;;2.08;;
81330;SDS011;70793;53.076;8.822;2023-06-26T00:12:52;1.60;;;1.50;;
81330;SDS011;70793;53.076;8.822;2023-06-26T00:15:18;2.63;;;2.17;;
81330;SDS011;70793;53.076;8.822;2023-06-26T00:17:44;2.50;;;2.25;;
81330;SDS011;70793;53.076;8.822;2023-06-26T00:20:10;2.10;;;1.90;;
81330;SDS011;70793;53.076;8.822;2023-06-26T00:22:36;1.92;;;1.77;;
81330;SDS011;70793;53.076;8.822;2023-06-26T00:25:01;2.80;;;2.00;;
81330;SDS011;70793;53.076;8.822;2023-06-26T00:27:27;2.40;;;2.20;;
81330;SDS011;70793;53.076;8.822;2023-06-26T00:29:52;2.67;;;2.00;;
81330;SDS011;70793;53.076;8.822;2023-06-26T00:32:18;4.63;;;2.05;;
81330;SDS011;70793;53.076;8.822;2023-06-26T00:34:43;2.30;;;2.03;;
81330;SDS011;70793;53.076;8.822;2023-06-26T00:37:09;2.10;;;1.80;;
81330;SDS011;70793;53.076;8.822;2023-06-26T00:39:34;2.35;;;2.13;;
81330;SDS011;70793;53.076;8.822;2023-06-26T00:42:02;3.33;;;1.88;;
81330;SDS011;70793;53.076;8.822;2023-06-26T00:44:28;3.00;;;2.15;;
81330;SDS011;70793;53.076;8.822;2023-06-26T00:46:53;2.22;;;2.03;;
81330;SDS011;70793;53.076;8.822;2023-06-26T00:49:22;2.33;;;2.13;;
81330;SDS011;70793;53.076;8.822;2023-06-26T00:51:48;2.00;;;1.80;;
81330;SDS011;70793;53.076;8.822;2023-06-26T00:54:13;2.03;;;1.83;;
81330;SDS011;70793;53.076;8.822;2023-06-26T00:56:45;2.08;;;1.88;;
81330;SDS011;70793;53.076;8.822;2023-06-26T00:59:11;2.28;;;2.08;;
81330;SDS011;70793;53.076;8.822;2023-06-26T01:01:37;2.22;;;2.03;;
81330;SDS011;70793;53.076;8.822;2023-06-26T01:04:02;2.50;;;2.25;;
81330;SDS011;70793;53.076;8.822;2023-06-26T01:06:28;2.20;;;1.90;;
81330;SDS011;70793;53.076;8.822;2023-06-26T01:09:00;2.13;;;1.80;;
81330;SDS011;70793;53.076;8.822;2023-06-26T01:11:27;2.60;;;2.25;;
81330;SDS011;70793;53.076;8.822;2023-06-26T01:13:53;1.85;;;1.75;;
81330;SDS011;70793;53.076;8.822;2023-06-26T01:16:20;3.25;;;2.05;;
81330;SDS011;70793;53.076;8.822;2023-06-26T01:18:47;2.20;;;2.00;;
81330;SDS011;70793;53.076;8.822;2023-06-26T01:21:13;2.20;;;2.00;;
81330;SDS011;70793;53.076;8.822;2023-06-26T01:28:44;1.65;;;1.55;;
81330;SDS011;70793;53.076;8.822;2023-06-26T01:31:10;2.20;;;1.90;;
81330;SDS011;70793;53.076;8.822;2023-06-26T01:33:36;2.40;;;2.20;;
81330;SDS011;70793;53.076;8.822;2023-06-26T01:36:02;2.88;;;2.17;;
81330;SDS011;70793;53.076;8.822;2023-06-26T01:38:28;2.45;;;2.25;;
81330;SDS011;70793;53.076;8.822;2023-06-26T01:40:53;3.20;;;2.33;;
81330;SDS011;70793;53.076;8.822;2023-06-26T01:46:09;2.22;;;2.03;;
81330;SDS011;70793;53.076;8.822;2023-06-26T01:48:47;2.20;;;1.85;;
81330;SDS011;70793;53.076;8.822;2023-06-26T01:51:16;2.42;;;1.77;;
81330;SDS011;70793;53.076;8.822;2023-06-26T01:53:44;2.22;;;1.95;;
81330;SDS011;70793;53.076;8.822;2023-06-26T01:56:14;1.90;;;1.75;;
81330;SDS011;70793;53.076;8.822;2023-06-26T01:58:43;2.03;;;1.83;;
81330;SDS011;70793;53.076;8.822;2023-06-26T02:01:09;2.10;;;1.90;;
81330;SDS011;70793;53.076;8.822;2023-06-26T02:03:34;1.75;;;1.65;;
81330;SDS011;70793;53.076;8.822;2023-06-26T02:05:59;2.10;;;1.90;;
81330;SDS011;70793;53.076;8.822;2023-06-26T02:08:25;2.67;;;2.00;;
81330;SDS011;70793;53.076;8.822;2023-06-26T02:10:50;2.25;;;2.05;;
81330;SDS011;70793;53.076;8.822;2023-06-26T02:13:16;2.90;;;1.73;;
81330;SDS011;70793;53.076;8.822;2023-06-26T02:15:41;2.63;;;2.33;;
81330;SDS011;70793;53.076;8.822;2023-06-26T02:18:06;2.53;;;1.97;;
81330;SDS011;70793;53.076;8.822;2023-06-26T02:20:32;2.40;;;2.17;;
81330;SDS011;70793;53.076;8.822;2023-06-26T02:22:58;2.20;;;1.70;;
81330;SDS011;70793;53.076;8.822;2023-06-26T02:25:23;2.28;;;1.92;;
81330;SDS011;70793;53.076;8.822;2023-06-26T02:27:49;2.90;;;2.03;;
81330;SDS011;70793;53.076;8.822;2023-06-26T02:30:14;2.50;;;2.10;;
81330;SDS011;70793;53.076;8.822;2023-06-26T02:32:40;2.22;;;2.00;;
81330;SDS011;70793;53.076;8.822;2023-06-26T02:35:05;2.58;;;2.30;;
81330;SDS011;70793;53.076;8.822;2023-06-26T02:37:31;2.53;;;1.90;;
81330;SDS011;70793;53.076;8.822;2023-06-26T02:39:56;1.93;;;1.77;;
81330;SDS011;70793;53.076;8.822;2023-06-26T02:42:22;2.40;;;2.20;;
81330;SDS011;70793;53.076;8.822;2023-06-26T02:44:47;2.43;;;2.07;;
81330;SDS011;70793;53.076;8.822;2023-06-26T02:47:12;2.42;;;2.22;;
81330;SDS011;70793;53.076;8.822;2023-06-26T02:49:38;2.47;;;2.10;;
81330;SDS011;70793;53.076;8.822;2023-06-26T02:52:03;2.10;;;1.90;;
81330;SDS011;70793;53.076;8.822;2023-06-26T02:54:29;2.08;;;1.88;;
81330;SDS011;70793;53.076;8.822;2023-06-26T02:56:54;2.23;;;2.03;;
81330;SDS011;70793;53.076;8.822;2023-06-26T02:59:20;2.58;;;2.25;;
81330;SDS011;70793;53.076;8.822;2023-06-26T03:01:45;2.10;;;1.90;;
81330;SDS011;70793;53.076;8.822;2023-06-26T03:04:10;2.38;;;2.05;;
81330;SDS011;70793;53.076;8.822;2023-06-26T03:06:36;3.27;;;2.17;;
81330;SDS011;70793;53.076;8.822;2023-06-26T03:09:01;2.63;;;2.13;;
81330;SDS011;70793;53.076;8.822;2023-06-26T03:11:27;2.10;;;1.90;;
81330;SDS011;70793;53.076;8.822;2023-06-26T03:13:53;2.13;;;1.92;;
81330;SDS011;70793;53.076;8.822;2023-06-26T03:16:18;2.30;;;2.10;;
81330;SDS011;70793;53.076;8.822;2023-06-26T03:18:44;2.30;;;2.10;;
81330;SDS011;70793;53.076;8.822;2023-06-26T03:21:09;2.55;;;2.10;;
81330;SDS011;70793;53.076;8.822;2023-06-26T03:23:35;2.08;;;1.80;;
81330;SDS011;70793;53.076;8.822;2023-06-26T03:26:00;2.63;;;2.13;;
81330;SDS011;70793;53.076;8.822;2023-06-26T03:28:26;2.50;;;2.17;;
81330;SDS011;70793;53.076;8.822;2023-06-26T03:30:51;2.55;;;2.35;;
81330;SDS011;70793;53.076;8.822;2023-06-26T03:33:16;3.67;;;2.23;;
81330;SDS011;70793;53.076;8.822;2023-06-26T03:35:42;2.53;;;2.33;;
81330;SDS011;70793;53.076;8.822;2023-06-26T03:38:08;2.80;;;2.40;;
81330;SDS011;70793;53.076;8.822;2023-06-26T03:40:33;2.35;;;2.05;;
81330;SDS011;70793;53.076;8.822;2023-06-26T03:42:58;2.33;;;2.13;;
81330;SDS011;70793;53.076;8.822;2023-06-26T03:45:24;2.53;;;1.92;;
81330;SDS011;70793;53.076;8.822;2023-06-26T03:47:49;2.72;;;2.40;;
81330;SDS011;70793;53.076;8.822;2023-06-26T03:50:18;2.30;;;2.10;;
81330;SDS011;70793;53.076;8.822;2023-06-26T03:52:44;3.80;;;2.40;;
81330;SDS011;70793;53.076;8.822;2023-06-26T03:55:10;2.03;;;1.83;;
81330;SDS011;70793;53.076;8.822;2023-06-26T03:57:35;2.28;;;1.80;;
81330;SDS011;70793;53.076;8.822;2023-06-26T04:00:01;2.75;;;2.25;;
81330;SDS011;70793;53.076;8.822;2023-06-26T04:02:33;3.10;;;2.22;;
81330;SDS011;70793;53.076;8.822;2023-06-26T04:04:58;2.60;;;2.40;;
81330;SDS011;70793;53.076;8.822;2023-06-26T04:07:24;2.40;;;2.20;;
81330;SDS011;70793;53.076;8.822;2023-06-26T04:09:50;2.80;;;1.80;;
81330;SDS011;70793;53.076;8.822;2023-06-26T04:12:15;3.20;;;1.80;;
81330;SDS011;70793;53.076;8.822;2023-06-26T04:14:40;2.45;;;2.25;;
81330;SDS011;70793;53.076;8.822;2023-06-26T04:17:06;2.60;;;2.40;;
81330;SDS011;70793;53.076;8.822;2023-06-26T04:19:31;2.08;;;1.88;;
81330;SDS011;70793;53.076;8.822;2023-06-26T04:21:57;2.40;;;2.20;;
81330;SDS011;70793;53.076;8.822;2023-06-26T04:24:22;2.63;;;1.88;;
81330;SDS011;70793;53.076;8.822;2023-06-26T04:26:47;2.72;;;1.95;;
81330;SDS011;70793;53.076;8.822;2023-06-26T04:29:13;2.33;;;2.13;;
81330;SDS011;70793;53.076;8.822;2023-06-26T04:31:38;2.47;;;2.28;;
81330;SDS011;70793;53.076;8.822;2023-06-26T04:34:04;1.98;;;1.75;;
81330;SDS011;70793;53.076;8.822;2023-06-26T04:36:29;3.58;;;2.42;;
81330;SDS011;70793;53.076;8.822;2023-06-26T04:38:56;2.45;;;2.00;;
81330;SDS011;70793;53.076;8.822;2023-06-26T04:41:21;2.75;;;2.25;;
81330;SDS011;70793;53.076;8.822;2023-06-26T04:43:47;2.05;;;1.75;;
81330;SDS011;70793;53.076;8.822;2023-06-26T04:46:12;1.77;;;1.67;;
81330;SDS011;70793;53.076;8.822;2023-06-26T04:48:38;2.10;;;1.90;;
81330;SDS011;70793;53.076;8.822;2023-06-26T04:51:03;2.08;;;1.88;;
81330;SDS011;70793;53.076;8.822;2023-06-26T04:53:28;2.03;;;1.87;;
81330;SDS011;70793;53.076;8.822;2023-06-26T04:55:54;2.88;;;1.70;;
81330;SDS011;70793;53.076;8.822;2023-06-26T04:58:19;2.10;;;1.90;;
81330;SDS011;70793;53.076;8.822;2023-06-26T05:00:45;3.65;;;2.15;;
81330;SDS011;70793;53.076;8.822;2023-06-26T05:03:14;2.95;;;1.67;;
81330;SDS011;70793;53.076;8.822;2023-06-26T05:05:42;2.90;;;2.05;;
81330;SDS011;70793;53.076;8.822;2023-06-26T05:08:14;2.28;;;1.95;;
81330;SDS011;70793;53.076;8.822;2023-06-26T05:10:40;2.28;;;2.08;;
81330;SDS011;70793;53.076;8.822;2023-06-26T05:13:05;2.10;;;1.73;;
81330;SDS011;70793;53.076;8.822;2023-06-26T05:15:31;2.13;;;1.80;;
81330;SDS011;70793;53.076;8.822;2023-06-26T05:17:56;2.05;;;1.85;;
81330;SDS011;70793;53.076;8.822;2023-06-26T05:20:21;2.38;;;1.92;;
81330;SDS011;70793;53.076;8.822;2023-06-26T05:22:47;2.50;;;2.03;;
81330;SDS011;70793;53.076;8.822;2023-06-26T05:25:12;2.45;;;1.88;;
81330;SDS011;70793;53.076;8.822;2023-06-26T05:27:38;1.95;;;1.67;;
81330;SDS011;70793;53.076;8.822;2023-06-26T05:30:04;1.73;;;1.63;;
81330;SDS011;70793;53.076;8.822;2023-06-26T05:32:29;2.28;;;2.08;;
81330;SDS011;70793;53.076;8.822;2023-06-26T05:34:55;1.75;;;1.65;;
81330;SDS011;70793;53.076;8.822;2023-06-26T05:37:22;1.85;;;1.65;;
81330;SDS011;70793;53.076;8.822;2023-06-26T05:39:47;1.52;;;1.42;;
81330;SDS011;70793;53.076;8.822;2023-06-26T05:42:13;2.20;;;1.90;;
81330;SDS011;70793;53.076;8.822;2023-06-26T05:44:39;1.98;;;1.77;;
81330;SDS011;70793;53.076;8.822;2023-06-26T05:47:04;2.97;;;2.15;;
81330;SDS011;70793;53.076;8.822;2023-06-26T05:49:30;2.33;;;1.92;;
81330;SDS011;70793;53.076;8.822;2023-06-26T05:51:56;1.88;;;1.55;;
81330;SDS011;70793;53.076;8.822;2023-06-26T05:54:22;1.95;;;1.75;;
81330;SDS011;70793;53.076;8.822;2023-06-26T05:56:49;2.70;;;1.80;;
81330;SDS011;70793;53.076;8.822;2023-06-26T05:59:16;12.13;;;10.88;;
81330;SDS011;70793;53.076;8.822;2023-06-26T06:01:42;7.65;;;6.38;;
81330;SDS011;70793;53.076;8.822;2023-06-26T06:04:07;3.70;;;3.40;;
81330;SDS011;70793;53.076;8.822;2023-06-26T06:06:33;5.18;;;4.30;;
81330;SDS011;70793;53.076;8.822;2023-06-26T06:08:58;7.43;;;5.93;;
81330;SDS011;70793;53.076;8.822;2023-06-26T06:11:23;4.03;;;3.00;;
81330;SDS011;70793;53.076;8.822;2023-06-26T06:13:49;7.47;;;6.77;;
81330;SDS011;70793;53.076;8.822;2023-06-26T06:16:14;3.47;;;2.90;;
81330;SDS011;70793;53.076;8.822;2023-06-26T06:18:40;2.42;;;2.05;;
81330;SDS011;70793;53.076;8.822;2023-06-26T06:21:05;2.30;;;2.03;;
81330;SDS011;70793;53.076;8.822;2023-06-26T06:23:31;2.40;;;1.92;;
81330;SDS011;70793;53.076;8.822;2023-06-26T06:25:56;2.20;;;2.00;;
81330;SDS011;70793;53.076;8.822;2023-06-26T06:28:21;2.43;;;1.90;;
81330;SDS011;70793;53.076;8.822;2023-06-26T06:30:47;2.35;;;1.85;;
81330;SDS011;70793;53.076;8.822;2023-06-26T06:33:13;1.80;;;1.65;;
81330;SDS011;70793;53.076;8.822;2023-06-26T06:35:39;1.80;;;1.50;;
81330;SDS011;70793;53.076;8.822;2023-06-26T06:38:04;2.50;;;1.88;;
81330;SDS011;70793;53.076;8.822;2023-06-26T06:40:33;2.17;;;1.90;;
81330;SDS011;70793;53.076;8.822;2023-06-26T06:42:59;2.00;;;1.52;;
81330;SDS011;70793;53.076;8.822;2023-06-26T06:45:24;1.60;;;1.50;;
81330;SDS011;70793;53.076;8.822;2023-06-26T06:47:52;2.13;;;1.92;;
81330;SDS011;70793;53.076;8.822;2023-06-26T06:50:18;1.70;;;1.50;;
81330;SDS011;70793;53.076;8.822;2023-06-26T06:52:44;2.20;;;2.00;;
81330;SDS011;70793;53.076;8.822;2023-06-26T06:55:10;2.38;;;1.95;;
81330;SDS011;70793;53.076;8.822;2023-06-26T06:57:35;2.17;;;1.98;;
81330;SDS011;70793;53.076;8.822;2023-06-26T07:02:34;2.50;;;2.20;;
81330;SDS011;70793;53.076;8.822;2023-06-26T07:05:00;2.30;;;1.90;;
81330;SDS011;70793;53.076;8.822;2023-06-26T07:07:28;2.13;;;1.90;;
81330;SDS011;70793;53.076;8.822;2023-06-26T07:10:20;2.83;;;2.47;;
81330;SDS011;70793;53.076;8.822;2023-06-26T07:12:45;2.67;;;2.47;;
81330;SDS011;70793;53.076;8.822;2023-06-26T07:15:10;2.00;;;1.80;;
81330;SDS011;70793;53.076;8.822;2023-06-26T07:17:36;2.28;;;2.05;;
81330;SDS011;70793;53.076;8.822;2023-06-26T07:20:04;3.55;;;3.05;;
81330;SDS011;70793;53.076;8.822;2023-06-26T07:22:32;3.28;;;2.67;;
81330;SDS011;70793;53.076;8.822;2023-06-26T07:24:57;5.68;;;3.05;;
81330;SDS011;70793;53.076;8.822;2023-06-26T07:27:22;2.90;;;2.60;;
81330;SDS011;70793;53.076;8.822;2023-06-26T07:29:48;2.30;;;2.10;;
81330;SDS011;70793;53.076;8.822;2023-06-26T07:32:13;3.20;;;2.67;;
81330;SDS011;70793;53.076;8.822;2023-06-26T07:34:39;2.50;;;1.90;;
81330;SDS011;70793;53.076;8.822;2023-06-26T07:37:04;3.45;;;2.50;;
81330;SDS011;70793;53.076;8.822;2023-06-26T07:39:30;2.75;;;2.42;;
81330;SDS011;70793;53.076;8.822;2023-06-26T07:41:55;2.50;;;2.30;;
81330;SDS011;70793;53.076;8.822;2023-06-26T07:44:21;2.90;;;1.70;;
81330;SDS011;70793;53.076;8.822;2023-06-26T07:46:46;3.88;;;2.70;;
81330;SDS011;70793;53.076;8.822;2023-06-26T07:49:12;2.13;;;1.92;;
81330;SDS011;70793;53.076;8.822;2023-06-26T07:51:37;2.70;;;2.30;;
81330;SDS011;70793;53.076;8.822;2023-06-26T07:54:03;2.70;;;2.13;;
81330;SDS011;70793;53.076;8.822;2023-06-26T07:56:29;2.60;;;2.40;;
81330;SDS011;70793;53.076;8.822;2023-06-26T07:58:54;2.20;;;2.00;;
81330;SDS011;70793;53.076;8.822;2023-06-26T08:01:20;3.92;;;3.17;;
81330;SDS011;70793;53.076;8.822;2023-06-26T08:03:45;2.60;;;2.30;;
81330;SDS011;70793;53.076;8.822;2023-06-26T08:06:11;3.40;;;2.58;;
81330;SDS011;70793;53.076;8.822;2023-06-26T08:08:36;3.00;;;2.70;;
81330;SDS011;70793;53.076;8.822;2023-06-26T08:13:28;2.95;;;2.65;;
81330;SDS011;70793;53.076;8.822;2023-06-26T08:15:54;3.53;;;3.07;;
81330;SDS011;70793;53.076;8.822;2023-06-26T08:18:19;3.85;;;3.45;;
81330;SDS011;70793;53.076;8.822;2023-06-26T08:20:45;3.35;;;3.05;;
81330;SDS011;70793;53.076;8.822;2023-06-26T08:23:10;3.30;;;2.63;;
81330;SDS011;70793;53.076;8.822;2023-06-26T08:25:35;3.40;;;3.10;;
81330;SDS011;70793;53.076;8.822;2023-06-26T08:28:01;4.13;;;2.60;;
81330;SDS011;70793;53.076;8.822;2023-06-26T08:30:26;4.10;;;3.23;;
81330;SDS011;70793;53.076;8.822;2023-06-26T08:32:56;3.90;;;2.25;;
81330;SDS011;70793;53.076;8.822;2023-06-26T08:35:21;3.33;;;1.85;;
81330;SDS011;70793;53.076;8.822;2023-06-26T08:37:47;3.30;;;2.78;;
81330;SDS011;70793;53.076;8.822;2023-06-26T08:40:12;3.83;;;2.50;;
81330;SDS011;70793;53.076;8.822;2023-06-26T08:42:37;2.38;;;1.90;;
81330;SDS011;70793;53.076;8.822;2023-06-26T08:45:03;2.85;;;2.30;;
81330;SDS011;70793;53.076;8.822;2023-06-26T08:47:29;2.33;;;1.70;;
81330;SDS011;70793;53.076;8.822;2023-06-26T08:50:08;1.67;;;1.30;;
81330;SDS011;70793;53.076;8.822;2023-06-26T08:55:26;1.45;;;1.35;;
81330;SDS011;70793;53.076;8.822;2023-06-26T08:57:52;3.10;;;1.38;;
81330;SDS011;70793;53.076;8.822;2023-06-26T09:00:18;1.60;;;1.45;;
81330;SDS011;70793;53.076;8.822;2023-06-26T09:02:44;2.45;;;1.77;;
81330;SDS011;70793;53.076;8.822;2023-06-26T09:05:10;2.30;;;1.73;;
81330;SDS011;70793;53.076;8.822;2023-06-26T09:07:36;2.15;;;1.73;;
81330;SDS011;70793;53.076;8.822;2023-06-26T09:10:01;2.63;;;1.75;;
81330;SDS011;70793;53.076;8.822;2023-06-26T09:12:27;2.60;;;2.05;;
81330;SDS011;70793;53.076;8.822;2023-06-26T09:14:53;1.80;;;1.60;;
81330;SDS011;70793;53.076;8.822;2023-06-26T09:17:23;2.00;;;1.73;;
81330;SDS011;70793;53.076;8.822;2023-06-26T09:19:50;2.95;;;2.65;;
81330;SDS011;70793;53.076;8.822;2023-06-26T09:22:15;1.70;;;1.52;;
81330;SDS011;70793;53.076;8.822;2023-06-26T09:24:43;2.30;;;2.10;;
81330;SDS011;70793;53.076;8.822;2023-06-26T09:27:08;3.70;;;2.13;;
81330;SDS011;70793;53.076;8.822;2023-06-26T09:29:34;2.15;;;1.95;;
81330;SDS011;70793;53.076;8.822;2023-06-26T09:32:00;2.63;;;1.52;;
81330;SDS011;70793;53.076;8.822;2023-06-26T09:34:32;1.45;;;1.25;;
81330;SDS011;70793;53.076;8.822;2023-06-26T09:36:58;3.00;;;1.67;;
81330;SDS011;70793;53.076;8.822;2023-06-26T09:39:24;3.15;;;1.40;;
81330;SDS011;70793;53.076;8.822;2023-06-26T09:41:49;2.08;;;1.10;;
81330;SDS011;70793;53.076;8.822;2023-06-26T09:44:15;1.67;;;1.05;;
81330;SDS011;70793;53.076;8.822;2023-06-26T09:46:40;1.67;;;1.43;;
81330;SDS011;70793;53.076;8.822;2023-06-26T09:49:10;2.08;;;1.45;;
81330;SDS011;70793;53.076;8.822;2023-06-26T09:51:36;1.55;;;1.38;;
81330;SDS011;70793;53.076;8.822;2023-06-26T09:54:03;1.55;;;1.10;;
81330;SDS011;70793;53.076;8.822;2023-06-26T09:56:30;1.33;;;1.10;;
81330;SDS011;70793;53.076;8.822;2023-06-26T09:58:56;1.63;;;1.27;;
81330;SDS011;70793;53.076;8.822;2023-06-26T10:01:26;2.92;;;1.02;;
81330;SDS011;70793;53.076;8.822;2023-06-26T10:03:51;1.63;;;1.10;;
81330;SDS011;70793;53.076;8.822;2023-06-26T10:06:28;1.45;;;0.80;;
81330;SDS011;70793;53.076;8.822;2023-06-26T10:08:58;1.13;;;0.95;;
81330;SDS011;70793;53.076;8.822;2023-06-26T10:11:25;2.15;;;1.08;;
81330;SDS011;70793;53.076;8.822;2023-06-26T10:13:52;1.40;;;0.93;;
81330;SDS011;70793;53.076;8.822;2023-06-26T10:16:23;1.85;;;1.15;;
81330;SDS011;70793;53.076;8.822;2023-06-26T10:18:56;1.38;;;1.05;;
81330;SDS011;70793;53.076;8.822;2023-06-26T10:21:29;2.97;;;1.08;;
81330;SDS011;70793;53.076;8.822;2023-06-26T10:23:55;1.00;;;0.70;;
81330;SDS011;70793;53.076;8.822;2023-06-26T10:26:21;1.38;;;0.82;;
81330;SDS011;70793;53.076;8.822;2023-06-26T10:28:47;1.00;;;0.90;;
81330;SDS011;70793;53.076;8.822;2023-06-26T10:31:16;1.25;;;0.90;;
81330;SDS011;70793;53.076;8.822;2023-06-26T10:33:44;1.25;;;0.65;;
81330;SDS011;70793;53.076;8.822;2023-06-26T10:36:16;0.77;;;0.55;;
81330;SDS011;70793;53.076;8.822;2023-06-26T10:38:51;1.35;;;0.80;;
81330;SDS011;70793;53.076;8.822;2023-06-26T10:41:22;1.67;;;1.00;;
81330;SDS011;70793;53.076;8.822;2023-06-26T10:44:12;1.45;;;0.65;;
81330;SDS011;70793;53.076;8.822;2023-06-26T10:46:55;2.50;;;0.70;;
81330;SDS011;70793;53.076;8.822;2023-06-26T10:49:26;1.27;;;0.60;;
81330;SDS011;70793;53.076;8.822;2023-06-26T10:51:53;0.82;;;0.70;;
81330;SDS011;70793;53.076;8.822;2023-06-26T10:54:21;0.82;;;0.65;;
81330;SDS011;70793;53.076;8.822;2023-06-26T10:56:47;1.95;;;0.93;;
81330;SDS011;70793;53.076;8.822;2023-06-26T10:59:21;2.08;;;0.60;;
81330;SDS011;70793;53.076;8.822;2023-06-26T11:02:00;1.33;;;0.70;;
81330;SDS011;70793;53.076;8.822;2023-06-26T11:04:45;1.02;;;0.57;;
81330;SDS011;70793;53.076;8.822;2023-06-26T11:10:02;1.30;;;0.63;;
81330;SDS011;70793;53.076;8.822;2023-06-26T11:12:39;1.88;;;0.93;;
81330;SDS011;70793;53.076;8.822;2023-06-26T11:15:16;2.03;;;0.70;;
81330;SDS011;70793;53.076;8.822;2023-06-26T11:17:42;1.70;;;0.50;;
81330;SDS011;70793;53.076;8.822;2023-06-26T11:20:09;0.95;;;0.60;;
81330;SDS011;70793;53.076;8.822;2023-06-26T11:22:37;0.73;;;0.50;;
81330;SDS011;70793;53.076;8.822;2023-06-26T11:25:03;0.52;;;0.50;;
81330;SDS011;70793;53.076;8.822;2023-06-26T11:30:04;1.27;;;0.80;;
81330;SDS011;70793;53.076;8.822;2023-06-26T11:32:34;0.93;;;0.55;;
81330;SDS011;70793;53.076;8.822;2023-06-26T11:35:00;1.15;;;0.60;;
81330;SDS011;70793;53.076;8.822;2023-06-26T11:37:25;1.40;;;0.60;;
81330;SDS011;70793;53.076;8.822;2023-06-26T11:39:51;1.40;;;0.75;;
81330;SDS011;70793;53.076;8.822;2023-06-26T11:42:20;0.55;;;0.40;;
81330;SDS011;70793;53.076;8.822;2023-06-26T11:44:46;2.42;;;0.82;;
81330;SDS011;70793;53.076;8.822;2023-06-26T11:47:15;1.52;;;0.60;;
81330;SDS011;70793;53.076;8.822;2023-06-26T11:49:42;1.50;;;0.63;;
81330;SDS011;70793;53.076;8.822;2023-06-26T11:52:08;0.80;;;0.50;;
81330;SDS011;70793;53.076;8.822;2023-06-26T11:54:33;0.90;;;0.63;;
81330;SDS011;70793;53.076;8.822;2023-06-26T11:56:59;1.00;;;0.73;;
81330;SDS011;70793;53.076;8.822;2023-06-26T11:59:32;0.85;;;0.50;;
81330;SDS011;70793;53.076;8.822;2023-06-26T12:01:59;1.20;;;0.90;;
81330;SDS011;70793;53.076;8.822;2023-06-26T12:04:24;1.00;;;0.45;;
81330;SDS011;70793;53.076;8.822;2023-06-26T12:06:51;1.75;;;0.68;;
81330;SDS011;70793;53.076;8.822;2023-06-26T12:09:22;1.55;;;0.57;;
81330;SDS011;70793;53.076;8.822;2023-06-26T12:11:48;1.27;;;0.73;;
81330;SDS011;70793;53.076;8.822;2023-06-26T12:14:19;0.73;;;0.73;;
81330;SDS011;70793;53.076;8.822;2023-06-26T12:16:45;0.70;;;0.45;;
81330;SDS011;70793;53.076;8.822;2023-06-26T12:19:12;1.23;;;0.80;;
81330;SDS011;70793;53.076;8.822;2023-06-26T12:24:03;1.70;;;0.60;;
81330;SDS011;70793;53.076;8.822;2023-06-26T12:26:29;0.70;;;0.60;;
81330;SDS011;70793;53.076;8.822;2023-06-26T12:29:05;1.83;;;0.73;;
81330;SDS011;70793;53.076;8.822;2023-06-26T12:31:31;2.05;;;0.90;;
81330;SDS011;70793;53.076;8.822;2023-06-26T12:33:57;1.52;;;1.00;;
81330;SDS011;70793;53.076;8.822;2023-06-26T12:36:22;1.25;;;0.70;;
81330;SDS011;70793;53.076;8.822;2023-06-26T12:38:48;1.23;;;0.50;;
81330;SDS011;70793;53.076;8.822;2023-06-26T12:41:14;0.55;;;0.40;;
81330;SDS011;70793;53.076;8.822;2023-06-26T12:43:41;0.80;;;0.65;;
81330;SDS011;70793;53.076;8.822;2023-06-26T12:46:07;1.40;;;0.82;;
81330;SDS011;70793;53.076;8.822;2023-06-26T12:48:36;2.17;;;0.55;;
81330;SDS011;70793;53.076;8.822;2023-06-26T12:53:35;1.10;;;0.50;;
81330;SDS011;70793;53.076;8.822;2023-06-26T12:56:00;1.23;;;0.65;;
81330;SDS011;70793;53.076;8.822;2023-06-26T12:58:26;0.70;;;0.50;;
81330;SDS011;70793;53.076;8.822;2023-06-26T13:00:51;1.08;;;0.60;;
81330;SDS011;70793;53.076;8.822;2023-06-26T13:03:18;0.90;;;0.50;;
81330;SDS011;70793;53.076;8.822;2023-06-26T13:05:45;0.60;;;0.43;;
81330;SDS011;70793;53.076;8.822;2023-06-26T13:08:11;0.82;;;0.57;;
81330;SDS011;70793;53.076;8.822;2023-06-26T13:10:36;1.45;;;0.50;;
81330;SDS011;70793;53.076;8.822;2023-06-26T13:13:02;0.50;;;0.43;;
81330;SDS011;70793;53.076;8.822;2023-06-26T13:15:27;0.90;;;0.50;;
81330;SDS011;70793;53.076;8.822;2023-06-26T13:17:53;1.23;;;0.63;;
81330;SDS011;70793;53.076;8.822;2023-06-26T13:20:18;1.20;;;0.60;;
81330;SDS011;70793;53.076;8.822;2023-06-26T13:22:44;1.13;;;0.63;;
81330;SDS011;70793;53.076;8.822;2023-06-26T13:25:11;1.05;;;0.45;;
81330;SDS011;70793;53.076;8.822;2023-06-26T13:27:36;0.70;;;0.57;;
81330;SDS011;70793;53.076;8.822;2023-06-26T13:30:02;2.10;;;0.50;;
81330;SDS011;70793;53.076;8.822;2023-06-26T13:32:27;1.02;;;0.52;;
81330;SDS011;70793;53.076;8.822;2023-06-26T13:34:53;0.88;;;0.65;;
81330;SDS011;70793;53.076;8.822;2023-06-26T13:37:19;0.60;;;0.35;;
81330;SDS011;70793;53.076;8.822;2023-06-26T13:39:44;1.60;;;0.60;;
81330;SDS011;70793;53.076;8.822;2023-06-26T13:42:16;0.80;;;0.35;;
81330;SDS011;70793;53.076;8.822;2023-06-26T13:44:42;1.58;;;0.70;;
81330;SDS011;70793;53.076;8.822;2023-06-26T13:47:08;1.27;;;0.60;;
81330;SDS011;70793;53.076;8.822;2023-06-26T13:49:34;2.40;;;1.90;;
81330;SDS011;70793;53.076;8.822;2023-06-26T13:52:00;1.70;;;0.70;;
81330;SDS011;70793;53.076;8.822;2023-06-26T13:54:25;0.60;;;0.32;;
81330;SDS011;70793;53.076;8.822;2023-06-26T13:56:50;1.10;;;0.63;;
81330;SDS011;70793;53.076;8.822;2023-06-26T13:59:16;0.82;;;0.63;;
81330;SDS011;70793;53.076;8.822;2023-06-26T14:01:43;0.82;;;0.55;;
81330;SDS011;70793;53.076;8.822;2023-06-26T14:04:08;1.08;;;0.50;;
81330;SDS011;70793;53.076;8.822;2023-06-26T14:06:34;1.27;;;0.70;;
81330;SDS011;70793;53.076;8.822;2023-06-26T14:09:00;1.90;;;0.50;;
81330;SDS011;70793;53.076;8.822;2023-06-26T14:11:26;2.30;;;0.80;;
81330;SDS011;70793;53.076;8.822;2023-06-26T14:13:52;1.15;;;0.75;;
81330;SDS011;70793;53.076;8.822;2023-06-26T14:16:17;2.10;;;0.70;;
81330;SDS011;70793;53.076;8.822;2023-06-26T14:18:44;0.77;;;0.60;;
81330;SDS011;70793;53.076;8.822;2023-06-26T14:21:09;0.45;;;0.40;;
81330;SDS011;70793;53.076;8.822;2023-06-26T14:23:35;2.90;;;0.90;;
81330;SDS011;70793;53.076;8.822;2023-06-26T14:26:00;2.33;;;0.80;;
81330;SDS011;70793;53.076;8.822;2023-06-26T14:28:25;0.90;;;0.70;;
81330;SDS011;70793;53.076;8.822;2023-06-26T14:30:51;1.00;;;0.75;;
81330;SDS011;70793;53.076;8.822;2023-06-26T14:33:16;2.88;;;0.65;;
81330;SDS011;70793;53.076;8.822;2023-06-26T14:35:42;1.38;;;1.02;;
81330;SDS011;70793;53.076;8.822;2023-06-26T14:38:07;1.05;;;0.73;;
81330;SDS011;70793;53.076;8.822;2023-06-26T14:40:32;0.57;;;0.50;;
81330;SDS011;70793;53.076;8.822;2023-06-26T14:42:58;0.93;;;0.55;;
81330;SDS011;70793;53.076;8.822;2023-06-26T14:45:23;0.90;;;0.40;;
81330;SDS011;70793;53.076;8.822;2023-06-26T14:47:48;1.10;;;0.50;;
81330;SDS011;70793;53.076;8.822;2023-06-26T14:50:14;0.77;;;0.43;;
81330;SDS011;70793;53.076;8.822;2023-06-26T14:52:39;0.60;;;0.60;;
81330;SDS011;70793;53.076;8.822;2023-06-26T14:55:05;1.15;;;0.50;;
81330;SDS011;70793;53.076;8.822;2023-06-26T14:57:31;1.08;;;0.50;;
81330;SDS011;70793;53.076;8.822;2023-06-26T14:59:57;1.90;;;0.80;;
81330;SDS011;70793;53.076;8.822;2023-06-26T15:02:22;0.75;;;0.60;;
81330;SDS011;70793;53.076;8.822;2023-06-26T15:04:48;1.13;;;0.60;;
81330;SDS011;70793;53.076;8.822;2023-06-26T15:07:13;0.77;;;0.50;;
81330;SDS011;70793;53.076;8.822;2023-06-26T15:09:38;0.98;;;0.60;;